X  LukMetar Aviation Weather Data     EKVJ Stauning

Temperatur

20°C Temperatur

17°C Dugpunkt

83% Luftfugtighed



Vind

27 KM/H

17 MPH

 8 M/S

15 KTS



230°
SWdir
Current Conditions

Mostly Scattered Clouds Mostly Scattered Clouds
Lufttryk 1023.92 (hPa) - 30.24 (in)
Visibility 6.2 (mi) - 10 (km)
Lufthavn
Airport-code EKVJ

Lokation Stauning 14 (km)

Metar:
EKVJ 231250Z 23015KT 9999 SCT015 20/17 Q1024

Time: 08-23-2019 14:50